createdAt,value
2023-04-28T00:00:16.132Z,35.47
2023-04-28T00:02:46.095Z,34.23
2023-04-28T00:05:14.912Z,34.00
2023-04-28T00:07:43.582Z,39.33
2023-04-28T00:10:12.650Z,38.37
2023-04-28T00:12:41.251Z,35.70
2023-04-28T00:15:11.829Z,36.67
2023-04-28T00:17:40.436Z,39.73
2023-04-28T00:20:10.373Z,36.43
2023-04-28T00:22:39.248Z,34.87
2023-04-28T00:25:08.655Z,38.93
2023-04-28T00:27:37.758Z,40.53
2023-04-28T00:30:07.586Z,36.07
2023-04-28T00:32:37.592Z,38.53
2023-04-28T00:35:07.292Z,38.70
2023-04-28T00:37:38.356Z,41.20
2023-04-28T00:40:08.216Z,40.30
2023-04-28T00:42:36.912Z,40.93
2023-04-28T00:45:06.859Z,41.40
2023-04-28T00:47:38.023Z,37.07
2023-04-28T00:50:07.710Z,36.10
2023-04-28T00:52:36.480Z,34.77
2023-04-28T00:55:06.598Z,37.27
2023-04-28T00:57:35.497Z,39.33
2023-04-28T01:00:04.657Z,36.07
2023-04-28T01:02:33.369Z,31.30
2023-04-28T01:05:03.721Z,34.50
2023-04-28T01:07:32.445Z,33.60
2023-04-28T01:10:01.115Z,33.17
2023-04-28T01:12:30.864Z,30.33
2023-04-28T01:14:59.566Z,35.53
2023-04-28T01:17:28.198Z,36.87
2023-04-28T01:19:57.234Z,33.33
2023-04-28T01:22:27.322Z,36.27
2023-04-28T01:24:57.495Z,37.97
2023-04-28T01:27:26.171Z,36.83
2023-04-28T01:29:54.822Z,35.33
2023-04-28T01:32:23.460Z,30.97
2023-04-28T01:34:52.080Z,32.47
2023-04-28T01:37:20.689Z,32.80
2023-04-28T01:39:49.311Z,32.40
2023-04-28T01:42:20.351Z,36.43
2023-04-28T01:44:49.012Z,34.10
2023-04-28T01:47:17.652Z,35.47
2023-04-28T01:49:48.314Z,33.27
2023-04-28T01:52:16.948Z,32.83
2023-04-28T01:54:45.550Z,28.10
2023-04-28T01:57:15.507Z,27.60
2023-04-28T01:59:47.540Z,29.20
2023-04-28T02:02:16.223Z,31.13
2023-04-28T02:04:44.964Z,29.07
2023-04-28T02:07:13.585Z,29.93
2023-04-28T02:09:42.315Z,32.97
2023-04-28T02:12:10.929Z,33.93
2023-04-28T02:14:39.690Z,33.33
2023-04-28T02:17:09.775Z,33.40
2023-04-28T02:19:38.873Z,31.33
2023-04-28T02:22:07.442Z,31.83
2023-04-28T02:24:38.900Z,31.03
2023-04-28T02:27:07.446Z,34.17
2023-04-28T02:29:36.400Z,37.50
2023-04-28T02:32:05.053Z,34.60
2023-04-28T02:34:35.096Z,31.07
2023-04-28T02:37:04.977Z,31.97
2023-04-28T02:39:33.644Z,31.27
2023-04-28T02:42:03.106Z,36.27
2023-04-28T02:44:31.705Z,38.67
2023-04-28T02:47:00.833Z,38.17
2023-04-28T02:49:29.404Z,47.57
2023-04-28T02:51:59.520Z,45.17
2023-04-28T02:54:28.789Z,42.27
2023-04-28T02:56:57.802Z,42.60
2023-04-28T02:59:27.380Z,40.90
2023-04-28T03:01:56.062Z,33.60
2023-04-28T03:04:24.937Z,37.30
2023-04-28T03:06:53.678Z,33.10
2023-04-28T03:09:24.986Z,35.27
2023-04-28T03:11:53.792Z,34.77
2023-04-28T03:14:22.325Z,34.83
2023-04-28T03:16:51.071Z,33.73
2023-04-28T03:19:19.755Z,34.17
2023-04-28T03:21:48.794Z,33.77
2023-04-28T03:24:17.839Z,34.03
2023-04-28T03:26:47.977Z,35.00
2023-04-28T03:29:16.618Z,32.00
2023-04-28T03:31:45.220Z,32.13
2023-04-28T03:34:13.882Z,33.77
2023-04-28T03:36:42.602Z,31.70
2023-04-28T03:39:11.153Z,29.53
2023-04-28T03:41:40.202Z,31.33
2023-04-28T03:44:10.235Z,30.00
2023-04-28T03:46:38.842Z,29.80
2023-04-28T03:49:07.449Z,28.80
2023-04-28T03:51:36.471Z,29.40
2023-04-28T03:54:05.094Z,30.93
2023-04-28T03:56:33.714Z,31.17
2023-04-28T03:59:02.271Z,31.70
2023-04-28T04:01:32.274Z,29.70
2023-04-28T04:04:01.461Z,30.87
2023-04-28T04:06:30.263Z,33.00
2023-04-28T04:08:58.941Z,35.60
2023-04-28T04:11:27.523Z,33.93
2023-04-28T04:13:56.040Z,43.70
2023-04-28T04:16:24.800Z,32.03
2023-04-28T04:18:54.785Z,32.00
2023-04-28T04:21:23.362Z,35.53
2023-04-28T04:23:51.935Z,32.60
2023-04-28T04:26:21.298Z,26.50
2023-04-28T04:28:50.980Z,25.37
2023-04-28T04:31:22.927Z,19.40
2023-04-28T04:33:52.345Z,22.70
2023-04-28T04:36:24.088Z,36.13
2023-04-28T04:38:56.176Z,26.67
2023-04-28T04:41:27.003Z,29.23
2023-04-28T04:43:55.653Z,38.03
2023-04-28T04:46:24.735Z,27.50
2023-04-28T04:48:53.342Z,28.53
2023-04-28T04:51:23.350Z,32.63
2023-04-28T04:53:51.911Z,34.80
2023-04-28T04:56:20.574Z,32.10
2023-04-28T04:58:49.262Z,33.40
2023-04-28T05:01:17.807Z,26.30
2023-04-28T05:03:46.682Z,33.20
2023-04-28T05:06:15.618Z,36.33
2023-04-28T05:08:45.776Z,28.37
2023-04-28T05:11:14.492Z,27.67
2023-04-28T05:13:43.127Z,27.30
2023-04-28T05:16:11.931Z,26.47
2023-04-28T05:18:40.751Z,26.53
2023-04-28T05:21:11.896Z,25.87
2023-04-28T05:23:40.799Z,27.70
2023-04-28T05:26:11.012Z,27.70
2023-04-28T05:28:41.776Z,26.83
2023-04-28T05:31:10.617Z,28.33
2023-04-28T05:33:39.387Z,27.07
2023-04-28T05:36:08.837Z,29.83
2023-04-28T05:38:37.953Z,28.83
2023-04-28T05:41:07.271Z,29.87
2023-04-28T05:43:37.597Z,31.53
2023-04-28T05:46:14.879Z,28.93
2023-04-28T05:48:50.940Z,28.83
2023-04-28T05:51:20.299Z,26.03
2023-04-28T05:53:52.580Z,25.53
2023-04-28T05:56:22.234Z,24.13
2023-04-28T05:58:53.647Z,24.03
2023-04-28T06:01:23.885Z,23.63
2023-04-28T06:03:54.087Z,23.93
2023-04-28T06:06:22.957Z,23.13
2023-04-28T06:08:51.615Z,19.37
2023-04-28T06:11:22.880Z,21.80
2023-04-28T06:13:53.145Z,22.90
2023-04-28T06:16:23.896Z,24.27
2023-04-28T06:18:53.420Z,28.33
2023-04-28T06:21:22.509Z,22.60
2023-04-28T06:23:51.245Z,16.93
2023-04-28T06:26:19.896Z,20.77
2023-04-28T06:28:48.484Z,22.80
2023-04-28T06:31:18.526Z,23.30
2023-04-28T06:33:47.136Z,25.83
2023-04-28T06:36:18.198Z,25.00
2023-04-28T06:38:47.684Z,24.67
2023-04-28T06:41:16.290Z,23.00
2023-04-28T06:43:44.879Z,20.37
2023-04-28T06:46:13.505Z,17.67
2023-04-28T06:48:43.542Z,18.17
2023-04-28T06:51:12.408Z,16.00
2023-04-28T06:53:41.006Z,15.43
2023-04-28T06:56:11.255Z,15.47
2023-04-28T06:58:40.419Z,15.80
2023-04-28T07:01:08.980Z,17.07
2023-04-28T07:03:37.643Z,18.13
2023-04-28T07:06:08.188Z,14.83
2023-04-28T07:08:37.234Z,13.43
2023-04-28T07:11:06.474Z,14.13
2023-04-28T07:13:35.358Z,14.30
2023-04-28T07:16:04.281Z,15.47
2023-04-28T07:18:32.815Z,15.43
2023-04-28T07:21:02.794Z,15.00
2023-04-28T07:23:34.938Z,17.47
2023-04-28T07:26:03.669Z,14.20
2023-04-28T07:28:34.233Z,11.07
2023-04-28T07:31:03.285Z,11.57
2023-04-28T07:33:31.875Z,10.07
2023-04-28T07:36:00.548Z,10.90
2023-04-28T07:38:29.469Z,10.27
2023-04-28T07:40:59.782Z,10.93
2023-04-28T07:43:28.471Z,10.83
2023-04-28T07:45:57.262Z,10.53
2023-04-28T07:48:27.416Z,10.20
2023-04-28T07:50:55.976Z,8.83
2023-04-28T07:53:24.581Z,12.77
2023-04-28T07:55:53.223Z,12.73
2023-04-28T07:58:23.269Z,15.97
2023-04-28T08:00:51.875Z,17.43
2023-04-28T08:03:20.829Z,8.73
2023-04-28T08:05:50.735Z,8.53
2023-04-28T08:08:19.343Z,12.20
2023-04-28T08:10:48.368Z,13.33
2023-04-28T08:13:17.061Z,13.30
2023-04-28T08:15:48.682Z,14.40
2023-04-28T08:18:20.103Z,13.40
2023-04-28T08:20:48.734Z,10.40
2023-04-28T08:23:17.319Z,12.60
2023-04-28T08:25:46.041Z,12.97
2023-04-28T08:28:14.807Z,13.70
2023-04-28T08:30:43.410Z,16.43
2023-04-28T08:33:13.451Z,12.00
2023-04-28T08:35:42.312Z,9.97
2023-04-28T08:38:14.146Z,8.00
2023-04-28T08:40:43.085Z,6.50
2023-04-28T08:43:11.830Z,7.57
2023-04-28T08:45:45.041Z,6.67
2023-04-28T08:48:23.197Z,5.80
2023-04-28T08:50:53.605Z,32.03
2023-04-28T08:53:26.893Z,7.27
2023-04-28T08:55:58.029Z,8.17
2023-04-28T08:58:27.667Z,7.10
2023-04-28T09:00:56.666Z,6.23
2023-04-28T09:03:28.898Z,7.73
2023-04-28T09:05:57.983Z,7.70
2023-04-28T09:08:26.715Z,7.43
2023-04-28T09:11:09.632Z,7.03
2023-04-28T09:13:38.631Z,7.80
2023-04-28T09:16:08.229Z,8.07
2023-04-28T09:18:38.288Z,7.50
2023-04-28T09:21:08.566Z,8.13
2023-04-28T09:23:47.726Z,7.40
2023-04-28T09:26:17.005Z,7.93
2023-04-28T09:28:45.576Z,8.55
2023-04-28T09:31:31.844Z,7.60
2023-04-28T09:34:03.053Z,8.80
2023-04-28T09:36:32.928Z,5.50
2023-04-28T09:39:02.621Z,7.77
2023-04-28T09:41:38.815Z,8.65
2023-04-28T09:44:17.976Z,8.33
2023-04-28T09:46:47.919Z,10.18
2023-04-28T09:49:17.898Z,6.18
2023-04-28T09:51:46.518Z,4.57
2023-04-28T09:54:15.311Z,4.80
2023-04-28T09:56:48.421Z,4.32
2023-04-28T09:59:17.063Z,5.90
2023-04-28T10:01:46.570Z,10.80
2023-04-28T10:04:16.089Z,4.93
2023-04-28T10:06:46.854Z,5.85
2023-04-28T10:09:16.819Z,11.00
2023-04-28T10:11:46.329Z,8.82
2023-04-28T10:14:17.956Z,9.75
2023-04-28T10:16:56.539Z,10.85
2023-04-28T10:19:25.205Z,12.95
2023-04-28T10:22:08.399Z,7.95
2023-04-28T10:24:54.787Z,7.55
2023-04-28T10:27:31.136Z,7.57
2023-04-28T10:30:23.024Z,9.73
2023-04-28T10:33:36.010Z,8.68
2023-04-28T10:36:05.368Z,9.23
2023-04-28T10:38:38.300Z,9.27
2023-04-28T10:41:07.277Z,8.93
2023-04-28T10:43:39.587Z,8.30
2023-04-28T10:46:12.071Z,7.88
2023-04-28T10:49:08.527Z,9.00
2023-04-28T10:51:37.861Z,8.10
2023-04-28T10:54:12.064Z,6.97
2023-04-28T10:56:42.162Z,5.70
2023-04-28T10:59:29.098Z,5.20
2023-04-28T11:02:17.920Z,4.67
2023-04-28T11:05:19.337Z,6.57
2023-04-28T11:08:31.296Z,6.80
2023-04-28T11:11:24.526Z,4.97
2023-04-28T11:13:53.597Z,6.10
2023-04-28T11:16:29.059Z,11.47
2023-04-28T11:19:03.801Z,6.80
2023-04-28T11:21:33.987Z,4.87
2023-04-28T11:24:02.799Z,4.47
2023-04-28T11:26:33.524Z,5.00
2023-04-28T11:29:02.137Z,5.20
2023-04-28T11:31:32.514Z,5.23
2023-04-28T11:34:06.407Z,5.07
2023-04-28T11:36:36.936Z,4.60
2023-04-28T11:39:09.379Z,4.70
2023-04-28T11:41:40.984Z,4.90
2023-04-28T11:44:14.205Z,4.60
2023-04-28T11:46:56.335Z,5.33
2023-04-28T11:49:25.888Z,5.30
2023-04-28T11:51:55.036Z,5.93
2023-04-28T11:54:25.317Z,5.60
2023-04-28T11:56:56.698Z,7.17
2023-04-28T11:59:27.349Z,4.80
2023-04-28T12:01:59.424Z,5.23
2023-04-28T12:04:33.285Z,5.70
2023-04-28T12:07:03.672Z,7.07
2023-04-28T12:09:35.594Z,5.72
2023-04-28T12:12:07.238Z,4.65
2023-04-28T12:14:56.617Z,6.47
2023-04-28T12:17:26.765Z,5.93
2023-04-28T12:19:55.613Z,5.05
2023-04-28T12:22:24.899Z,6.38
2023-04-28T12:25:08.283Z,6.65
2023-04-28T12:27:40.839Z,9.07
2023-04-28T12:30:28.044Z,9.60
2023-04-28T12:32:57.830Z,6.78
2023-04-28T12:35:27.531Z,7.65
2023-04-28T12:37:57.153Z,7.45
2023-04-28T12:40:26.442Z,7.25
2023-04-28T12:42:56.948Z,8.85
2023-04-28T12:45:25.677Z,8.68
2023-04-28T12:47:54.372Z,8.07
2023-04-28T12:50:23.018Z,9.43
2023-04-28T12:52:51.640Z,7.53
2023-04-28T12:55:20.373Z,8.25
2023-04-28T12:57:49.035Z,7.95
2023-04-28T13:00:23.371Z,7.45
2023-04-28T13:02:52.450Z,7.97
2023-04-28T13:05:21.204Z,8.25
2023-04-28T13:07:51.015Z,8.88
2023-04-28T13:10:21.494Z,7.68
2023-04-28T13:12:50.134Z,8.25
2023-04-28T13:15:20.269Z,14.90
2023-04-28T13:17:50.076Z,13.43
2023-04-28T13:20:18.908Z,14.02
2023-04-28T13:22:47.584Z,11.98
2023-04-28T13:25:16.608Z,12.70
2023-04-28T13:27:45.208Z,13.88
2023-04-28T13:30:16.350Z,14.95
2023-04-28T13:32:46.984Z,16.17
2023-04-28T13:35:15.809Z,16.92
2023-04-28T13:37:46.236Z,20.70
2023-04-28T13:40:15.072Z,15.82
2023-04-28T13:42:43.926Z,17.35
2023-04-28T13:45:14.460Z,15.88
2023-04-28T13:47:45.651Z,14.15
2023-04-28T13:50:14.367Z,12.45
2023-04-28T13:52:43.098Z,10.93
2023-04-28T13:55:11.719Z,10.10
2023-04-28T13:57:40.346Z,12.23
2023-04-28T14:00:10.682Z,15.80
2023-04-28T14:02:40.055Z,15.45
2023-04-28T14:05:11.981Z,14.95
2023-04-28T14:07:40.593Z,13.55
2023-04-28T14:10:09.972Z,15.48
2023-04-28T14:12:38.881Z,15.20
2023-04-28T14:15:08.619Z,15.90
2023-04-28T14:17:38.369Z,14.98
2023-04-28T14:20:10.397Z,15.57
2023-04-28T14:22:40.653Z,10.85
2023-04-28T14:25:10.084Z,11.43
2023-04-28T14:27:38.741Z,10.45
2023-04-28T14:30:09.026Z,10.63
2023-04-28T14:32:39.974Z,12.48
2023-04-28T14:35:09.788Z,15.25
2023-04-28T14:37:39.894Z,20.13
2023-04-28T14:40:10.018Z,17.48
2023-04-28T14:42:38.673Z,16.63
2023-04-28T14:45:09.638Z,17.02
2023-04-28T14:47:39.535Z,15.63
2023-04-28T14:50:09.866Z,16.23
2023-04-28T14:52:40.617Z,15.77
2023-04-28T14:55:10.012Z,18.92
2023-04-28T14:57:38.606Z,19.98
2023-04-28T15:00:08.612Z,15.45
2023-04-28T15:02:37.993Z,17.27
2023-04-28T15:05:08.272Z,18.90
2023-04-28T15:07:37.257Z,18.50
2023-04-28T15:10:08.174Z,19.00
2023-04-28T15:12:37.277Z,18.20
2023-04-28T15:15:06.378Z,16.55
2023-04-28T15:17:35.835Z,16.35
2023-04-28T15:20:04.403Z,18.10
2023-04-28T15:22:32.996Z,19.75
2023-04-28T15:25:02.304Z,19.95
2023-04-28T15:27:32.376Z,21.83
2023-04-28T15:30:01.567Z,18.63
2023-04-28T15:32:31.924Z,19.33
2023-04-28T15:35:00.565Z,18.85
2023-04-28T15:37:44.802Z,17.30
2023-04-28T15:40:14.790Z,13.90
2023-04-28T15:42:49.336Z,13.27
2023-04-28T15:45:19.661Z,15.07
2023-04-28T15:47:50.608Z,13.02
2023-04-28T15:50:20.818Z,13.57
2023-04-28T15:52:51.376Z,12.48
2023-04-28T15:55:21.612Z,12.55
2023-04-28T15:57:52.676Z,10.50
2023-04-28T16:00:21.610Z,10.98
2023-04-28T16:02:50.687Z,11.40
2023-04-28T16:05:19.866Z,10.48
2023-04-28T16:07:48.784Z,10.75
2023-04-28T16:10:18.458Z,11.40
2023-04-28T16:12:51.834Z,9.32
2023-04-28T16:15:20.557Z,10.43
2023-04-28T16:17:49.408Z,9.10
2023-04-28T16:20:18.001Z,7.43
2023-04-28T16:22:46.676Z,7.35
2023-04-28T16:25:15.375Z,7.30
2023-04-28T16:27:44.045Z,7.93
2023-04-28T16:30:14.357Z,8.43
2023-04-28T16:32:43.051Z,7.85
2023-04-28T16:35:15.284Z,7.77
2023-04-28T16:37:44.704Z,7.17
2023-04-28T16:40:15.308Z,8.02
2023-04-28T16:42:45.364Z,10.38
2023-04-28T16:45:15.788Z,9.37
2023-04-28T16:47:44.712Z,7.50
2023-04-28T16:50:14.941Z,7.10
2023-04-28T16:52:43.538Z,8.50
2023-04-28T16:55:15.403Z,7.47
2023-04-28T16:57:43.919Z,7.47
2023-04-28T17:00:15.832Z,7.67
2023-04-28T17:02:44.538Z,7.53
2023-04-28T17:05:13.252Z,7.70
2023-04-28T17:07:41.912Z,9.17
2023-04-28T17:10:11.332Z,7.63
2023-04-28T17:12:40.992Z,7.30
2023-04-28T17:15:10.730Z,7.53
2023-04-28T17:17:41.040Z,8.30
2023-04-28T17:20:10.491Z,9.60
2023-04-28T17:22:39.165Z,15.90
2023-04-28T17:25:08.581Z,20.63
2023-04-28T17:27:37.155Z,22.90
2023-04-28T17:30:06.490Z,21.27
2023-04-28T17:32:36.767Z,15.17
2023-04-28T17:35:07.615Z,11.20
2023-04-28T17:37:37.315Z,7.70
2023-04-28T17:40:06.451Z,5.50
2023-04-28T17:42:35.195Z,6.20
2023-04-28T17:45:07.561Z,6.40
2023-04-28T17:47:36.586Z,7.10
2023-04-28T17:50:10.767Z,8.80
2023-04-28T17:52:39.933Z,8.23
2023-04-28T17:55:09.895Z,7.20
2023-04-28T17:57:38.578Z,7.30
2023-04-28T18:00:08.456Z,7.80
2023-04-28T18:02:37.285Z,8.23
2023-04-28T18:05:07.700Z,8.53
2023-04-28T18:07:38.229Z,7.37
2023-04-28T18:10:07.555Z,8.77
2023-04-28T18:12:36.185Z,9.03
2023-04-28T18:15:08.209Z,8.77
2023-04-28T18:17:36.976Z,8.97
2023-04-28T18:20:07.081Z,7.67
2023-04-28T18:22:39.483Z,9.40
2023-04-28T18:25:08.711Z,8.83
2023-04-28T18:27:37.259Z,9.77
2023-04-28T18:30:06.304Z,10.75
2023-04-28T18:32:37.697Z,9.30
2023-04-28T18:35:06.695Z,9.27
2023-04-28T18:37:37.269Z,8.80
2023-04-28T18:40:06.772Z,7.53
2023-04-28T18:42:35.378Z,8.10
2023-04-28T18:45:04.718Z,7.20
2023-04-28T18:47:33.787Z,9.10
2023-04-28T18:50:02.753Z,9.37
2023-04-28T18:52:31.445Z,10.43
2023-04-28T18:55:01.409Z,13.83
2023-04-28T18:57:30.082Z,19.30
2023-04-28T18:59:59.609Z,13.13
2023-04-28T19:02:28.523Z,15.60
2023-04-28T19:04:57.521Z,20.13
2023-04-28T19:07:26.540Z,17.13
2023-04-28T19:09:55.228Z,18.73
2023-04-28T19:12:25.504Z,18.20
2023-04-28T19:14:54.592Z,16.80
2023-04-28T19:17:23.540Z,16.07
2023-04-28T19:19:56.197Z,14.60
2023-04-28T19:22:32.462Z,16.37
2023-04-28T19:25:01.496Z,13.73
2023-04-28T19:27:33.378Z,13.87
2023-04-28T19:30:02.258Z,15.20
2023-04-28T19:32:31.180Z,14.97
2023-04-28T19:34:59.708Z,16.07
2023-04-28T19:37:28.363Z,16.67
2023-04-28T19:39:56.976Z,38.07
2023-04-28T19:42:25.658Z,18.53
2023-04-28T19:44:58.295Z,15.57
2023-04-28T19:47:27.303Z,17.10
2023-04-28T19:49:57.726Z,17.63
2023-04-28T19:52:26.253Z,29.27
2023-04-28T19:54:55.159Z,26.47
2023-04-28T19:57:27.334Z,18.70
2023-04-28T19:59:57.612Z,17.40
2023-04-28T20:02:26.855Z,15.10
2023-04-28T20:04:56.741Z,31.73
2023-04-28T20:07:25.267Z,31.00
2023-04-28T20:09:56.292Z,20.50
2023-04-28T20:12:25.126Z,18.87
2023-04-28T20:14:53.756Z,18.00
2023-04-28T20:17:24.082Z,18.73
2023-04-28T20:19:53.420Z,19.53
2023-04-28T20:22:22.331Z,19.00
2023-04-28T20:24:51.008Z,18.67
2023-04-28T20:27:21.037Z,19.87
2023-04-28T20:29:49.844Z,18.63
2023-04-28T20:32:18.870Z,20.17
2023-04-28T20:34:48.921Z,20.40
2023-04-28T20:37:17.518Z,19.87
2023-04-28T20:39:47.416Z,20.23
2023-04-28T20:42:16.715Z,19.30
2023-04-28T20:44:46.677Z,22.43
2023-04-28T20:47:15.515Z,19.37
2023-04-28T20:49:44.183Z,21.77
2023-04-28T20:52:14.226Z,23.37
2023-04-28T20:54:44.114Z,25.43
2023-04-28T20:57:12.720Z,23.83
2023-04-28T20:59:42.033Z,23.00
2023-04-28T21:02:16.879Z,28.70
2023-04-28T21:04:45.571Z,26.57
2023-04-28T21:07:17.351Z,29.17
2023-04-28T21:09:46.016Z,29.57
2023-04-28T21:12:14.780Z,29.37
2023-04-28T21:14:43.366Z,28.23
2023-04-28T21:17:11.882Z,30.27
2023-04-28T21:19:40.548Z,29.93
2023-04-28T21:22:09.241Z,29.63
2023-04-28T21:24:39.196Z,27.47
2023-04-28T21:27:07.761Z,27.67
2023-04-28T21:29:36.525Z,29.10
2023-04-28T21:32:05.186Z,29.47
2023-04-28T21:34:34.089Z,30.53
2023-04-28T21:37:02.796Z,31.10
2023-04-28T21:39:31.371Z,31.63
2023-04-28T21:42:01.947Z,34.13
2023-04-28T21:44:30.855Z,35.13
2023-04-28T21:46:59.423Z,33.57
2023-04-28T21:49:28.696Z,21.73
2023-04-28T21:51:57.397Z,35.10
2023-04-28T21:54:26.000Z,32.40
2023-04-28T21:56:55.035Z,32.10
2023-04-28T21:59:25.605Z,36.70
2023-04-28T22:01:54.750Z,29.40
2023-04-28T22:04:23.981Z,37.27
2023-04-28T22:06:52.982Z,37.47
2023-04-28T22:09:21.544Z,33.93
2023-04-28T22:11:50.061Z,36.13
2023-04-28T22:14:38.781Z,31.07
2023-04-28T22:17:08.779Z,28.60
2023-04-28T22:19:37.335Z,27.07
2023-04-28T22:22:05.862Z,29.67
2023-04-28T22:24:34.620Z,28.87
2023-04-28T22:27:03.406Z,29.83
2023-04-28T22:29:31.968Z,27.77
2023-04-28T22:32:00.514Z,27.83
2023-04-28T22:34:30.929Z,26.03
2023-04-28T22:36:59.562Z,27.80
2023-04-28T22:39:28.155Z,27.77
2023-04-28T22:41:57.037Z,25.87
2023-04-28T22:44:25.889Z,28.73
2023-04-28T22:46:54.533Z,27.57
2023-04-28T22:49:26.061Z,28.00
2023-04-28T22:51:56.162Z,26.53
2023-04-28T22:54:24.799Z,28.20
2023-04-28T22:56:53.554Z,29.83
2023-04-28T22:59:22.269Z,31.40
2023-04-28T23:01:51.061Z,29.07
2023-04-28T23:04:20.752Z,32.43
2023-04-28T23:06:49.628Z,35.10
2023-04-28T23:09:19.892Z,34.53
2023-04-28T23:11:48.620Z,36.77
2023-04-28T23:14:17.422Z,38.13
2023-04-28T23:16:45.991Z,38.33
2023-04-28T23:19:14.562Z,40.43
2023-04-28T23:21:43.079Z,42.77
2023-04-28T23:24:11.650Z,39.47
2023-04-28T23:26:41.856Z,36.10
2023-04-28T23:29:10.914Z,41.70
2023-04-28T23:31:40.151Z,42.53
2023-04-28T23:34:08.828Z,45.53
2023-04-28T23:36:38.005Z,43.60
2023-04-28T23:39:06.755Z,42.30
2023-04-28T23:41:35.310Z,38.57
2023-04-28T23:44:05.795Z,34.77
2023-04-28T23:46:34.511Z,37.27
2023-04-28T23:49:03.851Z,36.33
2023-04-28T23:51:33.540Z,36.13
2023-04-28T23:54:02.624Z,31.87
2023-04-28T23:56:31.561Z,31.00
2023-04-28T23:59:00.408Z,27.80
